createdAt,value
2018-07-08T00:00:03.814Z,2.30
2018-07-08T00:02:32.194Z,2.23
2018-07-08T00:05:00.568Z,2.97
2018-07-08T00:07:29.006Z,2.60
2018-07-08T00:09:57.508Z,2.40
2018-07-08T00:12:26.472Z,2.70
2018-07-08T00:14:54.916Z,2.10
2018-07-08T00:17:23.289Z,2.60
2018-07-08T00:19:51.693Z,2.83
2018-07-08T00:22:20.075Z,2.97
2018-07-08T00:24:48.468Z,2.50
2018-07-08T00:27:16.707Z,2.63
2018-07-08T00:29:45.179Z,2.80
2018-07-08T00:32:13.577Z,3.03
2018-07-08T00:34:41.939Z,2.73
2018-07-08T00:37:10.345Z,3.00
2018-07-08T00:39:38.769Z,3.00
2018-07-08T00:42:07.192Z,3.00
2018-07-08T00:44:35.557Z,2.80
2018-07-08T00:47:03.971Z,2.87
2018-07-08T00:49:32.370Z,3.10
2018-07-08T00:52:00.784Z,3.00
2018-07-08T00:54:29.230Z,3.03
2018-07-08T00:56:57.634Z,3.03
2018-07-08T00:59:26.042Z,3.00
2018-07-08T01:01:54.454Z,3.10
2018-07-08T01:04:22.940Z,3.03
2018-07-08T01:06:51.309Z,2.87
2018-07-08T01:09:19.670Z,3.50
2018-07-08T01:11:48.091Z,3.30
2018-07-08T01:14:16.463Z,3.60
2018-07-08T01:16:44.846Z,2.90
2018-07-08T01:19:13.378Z,3.20
2018-07-08T01:21:41.748Z,3.37
2018-07-08T01:24:10.118Z,3.20
2018-07-08T01:26:38.666Z,3.10
2018-07-08T01:29:07.038Z,3.03
2018-07-08T01:31:35.425Z,3.10
2018-07-08T01:34:03.825Z,3.27
2018-07-08T01:36:32.232Z,3.40
2018-07-08T01:39:00.571Z,3.07
2018-07-08T01:41:29.018Z,3.37
2018-07-08T01:43:57.478Z,3.20
2018-07-08T01:46:25.889Z,3.37
2018-07-08T01:48:54.285Z,3.40
2018-07-08T01:51:22.690Z,3.27
2018-07-08T01:53:51.141Z,3.80
2018-07-08T01:56:19.626Z,3.30
2018-07-08T01:58:48.052Z,3.90
2018-07-08T02:01:16.464Z,3.60
2018-07-08T02:03:44.941Z,3.80
2018-07-08T02:06:13.353Z,3.37
2018-07-08T02:08:41.766Z,3.70
2018-07-08T02:11:11.067Z,3.80
2018-07-08T02:13:39.661Z,4.00
2018-07-08T02:16:07.740Z,3.77
2018-07-08T02:18:36.174Z,3.67
2018-07-08T02:21:04.646Z,3.73
2018-07-08T02:23:33.072Z,3.80
2018-07-08T02:26:01.497Z,3.80
2018-07-08T02:28:29.918Z,4.10
2018-07-08T02:30:58.377Z,3.87
2018-07-08T02:33:26.823Z,4.27
2018-07-08T02:35:55.266Z,3.90
2018-07-08T02:38:23.658Z,4.50
2018-07-08T02:40:52.140Z,4.13
2018-07-08T02:43:20.569Z,3.77
2018-07-08T02:45:49.498Z,4.20
2018-07-08T02:48:17.966Z,4.57
2018-07-08T02:50:46.370Z,4.33
2018-07-08T02:53:14.786Z,4.50
2018-07-08T02:55:43.247Z,3.70
2018-07-08T02:58:11.671Z,3.67
2018-07-08T03:00:40.073Z,3.70
2018-07-08T03:03:08.591Z,3.77
2018-07-08T03:05:36.986Z,3.47
2018-07-08T03:08:05.417Z,3.70
2018-07-08T03:10:33.857Z,4.10
2018-07-08T03:13:02.322Z,3.67
2018-07-08T03:15:30.722Z,3.47
2018-07-08T03:17:59.187Z,3.13
2018-07-08T03:20:27.582Z,3.83
2018-07-08T03:22:56.002Z,3.67
2018-07-08T03:25:24.429Z,3.40
2018-07-08T03:27:52.801Z,4.17
2018-07-08T03:30:21.192Z,3.50
2018-07-08T03:32:49.633Z,3.73
2018-07-08T03:35:17.990Z,4.03
2018-07-08T03:37:46.443Z,3.40
2018-07-08T03:40:14.585Z,3.67
2018-07-08T03:42:42.999Z,3.70
2018-07-08T03:45:11.377Z,3.87
2018-07-08T03:47:39.725Z,3.57
2018-07-08T03:50:08.169Z,3.57
2018-07-08T03:52:37.268Z,3.47
2018-07-08T03:55:05.903Z,3.57
2018-07-08T03:57:34.294Z,3.70
2018-07-08T04:00:02.734Z,3.80
2018-07-08T04:02:31.682Z,3.40
2018-07-08T04:05:00.146Z,4.00
2018-07-08T04:07:28.229Z,3.97
2018-07-08T04:09:56.301Z,3.83
2018-07-08T04:12:24.383Z,3.70
2018-07-08T04:14:52.500Z,3.77
2018-07-08T04:17:20.990Z,3.67
2018-07-08T04:19:49.418Z,3.87
2018-07-08T04:22:17.819Z,4.27
2018-07-08T04:24:46.245Z,3.93
2018-07-08T04:27:14.589Z,4.20
2018-07-08T04:29:43.069Z,4.07
2018-07-08T04:32:11.490Z,3.67
2018-07-08T04:34:39.845Z,3.83
2018-07-08T04:37:08.239Z,3.97
2018-07-08T04:39:37.191Z,3.87
2018-07-08T04:42:05.581Z,4.10
2018-07-08T04:44:33.947Z,4.43
2018-07-08T04:47:02.320Z,3.70
2018-07-08T04:49:30.715Z,4.07
2018-07-08T04:51:59.200Z,3.87
2018-07-08T04:54:27.717Z,4.27
2018-07-08T04:56:56.099Z,4.17
2018-07-08T04:59:24.482Z,4.00
2018-07-08T05:01:52.893Z,4.17
2018-07-08T05:04:21.244Z,3.77
2018-07-08T05:06:49.648Z,3.87
2018-07-08T05:09:18.030Z,4.10
2018-07-08T05:11:46.461Z,4.10
2018-07-08T05:14:14.841Z,4.10
2018-07-08T05:16:43.245Z,3.70
2018-07-08T05:19:11.621Z,3.67
2018-07-08T05:21:39.986Z,3.70
2018-07-08T05:24:08.367Z,3.87
2018-07-08T05:26:36.761Z,3.90
2018-07-08T05:29:05.409Z,3.87
2018-07-08T05:31:33.472Z,4.03
2018-07-08T05:34:01.569Z,3.80
2018-07-08T05:36:30.009Z,3.53
2018-07-08T05:38:58.494Z,3.73
2018-07-08T05:41:26.922Z,3.90
2018-07-08T05:43:55.356Z,3.50
2018-07-08T05:46:23.853Z,3.47
2018-07-08T05:48:52.298Z,3.50
2018-07-08T05:51:20.713Z,3.63
2018-07-08T05:53:49.141Z,3.50
2018-07-08T05:56:17.565Z,2.60
2018-07-08T05:58:46.061Z,3.30
2018-07-08T06:01:14.419Z,3.20
2018-07-08T06:03:42.918Z,3.20
2018-07-08T06:06:11.982Z,2.20
2018-07-08T06:08:40.401Z,3.10
2018-07-08T06:11:08.846Z,2.80
2018-07-08T06:13:37.288Z,2.90
2018-07-08T06:16:05.750Z,11.90
2018-07-08T06:18:34.188Z,3.73
2018-07-08T06:21:02.654Z,3.70
2018-07-08T06:23:31.063Z,2.87
2018-07-08T06:25:59.557Z,3.10
2018-07-08T06:28:27.995Z,2.97
2018-07-08T06:30:56.442Z,2.90
2018-07-08T06:33:24.650Z,3.03
2018-07-08T06:35:53.506Z,2.90
2018-07-08T06:38:21.607Z,2.50
2018-07-08T06:40:50.028Z,2.50
2018-07-08T06:43:18.457Z,2.70
2018-07-08T06:45:46.933Z,2.40
2018-07-08T06:48:15.343Z,2.87
2018-07-08T06:50:43.797Z,2.30
2018-07-08T06:53:12.193Z,2.20
2018-07-08T06:55:40.653Z,2.13
2018-07-08T06:58:09.161Z,2.07
2018-07-08T07:00:37.577Z,2.47
2018-07-08T07:03:06.087Z,2.23
2018-07-08T07:05:34.565Z,2.20
2018-07-08T07:08:03.002Z,2.03
2018-07-08T07:10:31.439Z,1.90
2018-07-08T07:12:59.837Z,1.70
2018-07-08T07:15:28.294Z,2.23
2018-07-08T07:17:56.682Z,2.20
2018-07-08T07:20:25.089Z,1.93
2018-07-08T07:22:54.166Z,1.93
2018-07-08T07:25:23.086Z,2.10
2018-07-08T07:27:53.742Z,2.27
2018-07-08T07:30:22.982Z,1.70
2018-07-08T07:32:51.974Z,1.83
2018-07-08T07:35:20.395Z,1.70
2018-07-08T07:37:48.827Z,1.80
2018-07-08T07:40:17.239Z,1.73
2018-07-08T07:42:45.357Z,1.90
2018-07-08T07:45:13.801Z,1.97
2018-07-08T07:47:42.263Z,2.20
2018-07-08T07:50:10.688Z,1.83
2018-07-08T07:52:39.089Z,1.50
2018-07-08T07:55:07.482Z,1.87
2018-07-08T07:57:35.937Z,2.10
2018-07-08T08:00:04.959Z,2.10
2018-07-08T08:02:33.330Z,2.17
2018-07-08T08:05:01.714Z,1.97
2018-07-08T08:07:30.110Z,2.07
2018-07-08T08:09:58.469Z,2.40
2018-07-08T08:12:26.925Z,2.23
2018-07-08T08:14:55.309Z,2.00
2018-07-08T08:17:23.774Z,2.10
2018-07-08T08:19:52.194Z,2.30
2018-07-08T08:22:20.610Z,2.50
2018-07-08T08:24:49.031Z,2.20
2018-07-08T08:27:17.450Z,2.40
2018-07-08T08:29:45.815Z,2.40
2018-07-08T08:32:14.215Z,2.73
2018-07-08T08:34:52.003Z,2.50
2018-07-08T08:37:22.218Z,3.10
2018-07-08T08:39:51.468Z,2.50
2018-07-08T08:42:19.933Z,2.43
2018-07-08T08:44:49.766Z,2.62
2018-07-08T08:47:18.769Z,2.53
2018-07-08T08:49:48.280Z,2.80
2018-07-08T08:52:16.848Z,2.30
2018-07-08T08:54:45.256Z,2.67
2018-07-08T08:57:13.782Z,3.43
2018-07-08T08:59:42.264Z,3.10
2018-07-08T09:02:10.970Z,3.97
2018-07-08T09:04:40.150Z,3.20
2018-07-08T09:07:09.736Z,3.80
2018-07-08T09:09:38.202Z,3.93
2018-07-08T09:12:07.548Z,3.50
2018-07-08T09:14:36.192Z,3.70
2018-07-08T09:17:04.659Z,2.83
2018-07-08T09:19:33.119Z,4.00
2018-07-08T09:22:01.571Z,3.80
2018-07-08T09:24:30.019Z,3.40
2018-07-08T09:26:58.479Z,3.17
2018-07-08T09:29:26.578Z,3.10
2018-07-08T09:31:55.171Z,3.50
2018-07-08T09:34:23.583Z,2.90
2018-07-08T09:36:51.932Z,3.27
2018-07-08T09:39:20.987Z,3.40
2018-07-08T09:41:49.387Z,3.50
2018-07-08T09:44:18.412Z,3.73
2018-07-08T09:46:47.754Z,3.00
2018-07-08T09:49:16.428Z,3.00
2018-07-08T09:51:45.454Z,3.83
2018-07-08T09:54:14.049Z,3.67
2018-07-08T09:56:42.447Z,3.73
2018-07-08T09:59:10.865Z,3.40
2018-07-08T10:01:46.926Z,3.40
2018-07-08T10:04:20.477Z,3.30
2018-07-08T10:06:49.554Z,3.73
2018-07-08T10:09:19.146Z,2.40
2018-07-08T10:11:47.728Z,2.67
2018-07-08T10:14:17.323Z,3.50
2018-07-08T10:19:50.400Z,3.27
2018-07-08T10:22:18.726Z,3.60
2018-07-08T10:24:47.225Z,3.43
2018-07-08T10:27:30.697Z,3.30
2018-07-08T10:29:59.188Z,2.57
2018-07-08T10:32:27.644Z,3.30
2018-07-08T10:34:56.058Z,3.03
2018-07-08T10:37:24.558Z,3.40
2018-07-08T10:39:52.992Z,2.97
2018-07-08T10:42:22.241Z,3.63
2018-07-08T10:44:50.629Z,2.70
2018-07-08T10:47:19.118Z,3.00
2018-07-08T10:49:47.589Z,3.73
2018-07-08T10:52:16.029Z,3.30
2018-07-08T10:54:44.455Z,3.50
2018-07-08T10:57:12.971Z,3.37
2018-07-08T10:59:41.373Z,3.50
2018-07-08T11:02:09.921Z,3.20
2018-07-08T11:04:38.370Z,2.43
2018-07-08T11:07:06.755Z,3.80
2018-07-08T11:09:35.235Z,3.70
2018-07-08T11:12:03.725Z,3.20
2018-07-08T11:14:32.274Z,3.10
2018-07-08T11:17:00.682Z,3.60
2018-07-08T11:19:29.183Z,3.30
2018-07-08T11:21:57.594Z,2.90
2018-07-08T11:24:26.109Z,3.20
2018-07-08T11:26:54.710Z,3.40
2018-07-08T11:29:23.247Z,3.20
2018-07-08T11:31:51.749Z,2.90
2018-07-08T11:34:20.134Z,3.10
2018-07-08T11:36:48.493Z,2.70
2018-07-08T11:39:16.662Z,2.80
2018-07-08T11:41:45.157Z,2.50
2018-07-08T11:44:13.579Z,2.77
2018-07-08T11:46:41.991Z,2.53
2018-07-08T11:49:10.622Z,2.47
2018-07-08T11:51:39.066Z,2.60
2018-07-08T11:54:07.637Z,2.33
2018-07-08T11:56:36.129Z,2.87
2018-07-08T11:59:04.565Z,2.47
2018-07-08T12:01:33.137Z,2.20
2018-07-08T12:04:01.565Z,3.00
2018-07-08T12:06:30.016Z,2.30
2018-07-08T12:08:58.658Z,2.43
2018-07-08T12:11:27.118Z,2.50
2018-07-08T12:13:55.612Z,2.50
2018-07-08T12:16:24.051Z,2.20
2018-07-08T12:18:52.448Z,2.10
2018-07-08T12:21:21.019Z,2.23
2018-07-08T12:23:49.712Z,2.20
2018-07-08T12:26:18.157Z,2.40
2018-07-08T12:28:46.586Z,2.60
2018-07-08T12:31:14.961Z,2.37
2018-07-08T12:33:43.822Z,2.20
2018-07-08T12:36:13.598Z,2.20
2018-07-08T12:38:41.972Z,1.97
2018-07-08T12:41:11.324Z,1.80
2018-07-08T12:43:39.889Z,2.00
2018-07-08T12:46:08.349Z,1.70
2018-07-08T12:48:37.871Z,2.10
2018-07-08T12:51:07.581Z,1.73
2018-07-08T12:53:38.491Z,1.80
2018-07-08T12:56:06.987Z,1.70
2018-07-08T12:58:35.455Z,2.20
2018-07-08T13:01:03.861Z,1.80
2018-07-08T13:03:32.304Z,1.87
2018-07-08T13:06:00.710Z,2.10
2018-07-08T13:08:29.106Z,2.00
2018-07-08T13:10:57.645Z,2.00
2018-07-08T13:13:26.069Z,1.90
2018-07-08T13:15:54.353Z,1.70
2018-07-08T13:18:22.798Z,1.90
2018-07-08T13:20:51.251Z,1.60
2018-07-08T13:23:19.700Z,1.90
2018-07-08T13:25:48.128Z,1.60
2018-07-08T13:28:16.567Z,2.03
2018-07-08T13:30:45.046Z,1.80
2018-07-08T13:33:13.171Z,1.60
2018-07-08T13:35:41.766Z,1.40
2018-07-08T13:38:10.182Z,1.90
2018-07-08T13:40:38.678Z,1.70
2018-07-08T13:43:07.281Z,1.50
2018-07-08T13:45:37.304Z,1.57
2018-07-08T13:48:05.981Z,1.77
2018-07-08T13:50:34.397Z,1.87
2018-07-08T13:53:02.825Z,1.50
2018-07-08T13:55:31.280Z,1.60
2018-07-08T13:57:59.758Z,1.57
2018-07-08T14:00:28.256Z,1.50
2018-07-08T14:02:56.893Z,1.63
2018-07-08T14:05:25.362Z,1.50
2018-07-08T14:07:54.117Z,1.50
2018-07-08T14:10:22.540Z,1.53
2018-07-08T14:12:50.989Z,2.00
2018-07-08T14:15:19.477Z,1.70
2018-07-08T14:17:47.906Z,2.03
2018-07-08T14:20:16.456Z,1.80
2018-07-08T14:22:44.769Z,2.07
2018-07-08T14:25:13.199Z,1.60
2018-07-08T14:27:41.633Z,1.80
2018-07-08T14:30:10.130Z,1.40
2018-07-08T14:32:39.094Z,1.50
2018-07-08T14:35:07.836Z,1.43
2018-07-08T14:37:36.197Z,1.53
2018-07-08T14:40:04.697Z,1.67
2018-07-08T14:42:33.062Z,1.70
2018-07-08T14:45:01.609Z,1.50
2018-07-08T14:47:29.986Z,1.67
2018-07-08T14:49:58.466Z,1.70
2018-07-08T14:52:26.908Z,1.50
2018-07-08T14:54:55.362Z,1.67
2018-07-08T14:57:23.814Z,1.53
2018-07-08T14:59:52.327Z,1.70
2018-07-08T15:02:21.550Z,1.80
2018-07-08T15:04:50.122Z,1.60
2018-07-08T15:07:18.681Z,1.60
2018-07-08T15:09:47.202Z,2.03
2018-07-08T15:12:15.609Z,1.50
2018-07-08T15:14:44.066Z,1.60
2018-07-08T15:17:12.514Z,1.60
2018-07-08T15:19:40.916Z,1.83
2018-07-08T15:22:09.420Z,2.00
2018-07-08T15:24:37.893Z,1.73
2018-07-08T15:27:06.358Z,1.60
2018-07-08T15:29:35.039Z,1.50
2018-07-08T15:32:04.351Z,1.97
2018-07-08T15:34:32.803Z,1.57
2018-07-08T15:37:01.282Z,1.60
2018-07-08T15:39:30.273Z,1.60
2018-07-08T15:41:58.716Z,1.70
2018-07-08T15:44:27.297Z,1.63
2018-07-08T15:46:55.809Z,1.80
2018-07-08T15:49:23.971Z,1.80
2018-07-08T15:51:52.357Z,1.50
2018-07-08T15:54:20.877Z,1.27
2018-07-08T15:56:49.340Z,1.80
2018-07-08T15:59:17.899Z,1.80
2018-07-08T16:01:46.386Z,1.50
2018-07-08T16:04:14.490Z,1.70
2018-07-08T16:06:42.995Z,1.40
2018-07-08T16:09:11.754Z,1.60
2018-07-08T16:11:40.344Z,1.43
2018-07-08T16:14:08.808Z,1.50
2018-07-08T16:16:37.386Z,1.80
2018-07-08T16:19:06.107Z,1.43
2018-07-08T16:21:34.582Z,1.80
2018-07-08T16:24:03.158Z,1.70
2018-07-08T16:26:31.750Z,1.70
2018-07-08T16:29:00.245Z,1.57
2018-07-08T16:31:28.659Z,2.00
2018-07-08T16:33:57.298Z,1.70
2018-07-08T16:36:26.287Z,1.93
2018-07-08T16:38:56.677Z,2.03
2018-07-08T16:41:26.397Z,1.90
2018-07-08T16:43:54.725Z,1.90
2018-07-08T16:46:23.770Z,1.77
2018-07-08T16:48:52.349Z,1.87
2018-07-08T16:51:20.770Z,1.60
2018-07-08T16:53:49.223Z,1.70
2018-07-08T16:56:17.680Z,1.93
2018-07-08T16:58:46.160Z,1.87
2018-07-08T17:01:14.604Z,2.03
2018-07-08T17:03:43.041Z,2.00
2018-07-08T17:06:11.418Z,1.80
2018-07-08T17:08:39.805Z,2.13
2018-07-08T17:11:08.181Z,2.00
2018-07-08T17:13:36.692Z,1.83
2018-07-08T17:16:05.291Z,1.90
2018-07-08T17:18:33.736Z,2.10
2018-07-08T17:21:02.206Z,1.43
2018-07-08T17:23:30.693Z,1.90
2018-07-08T17:25:59.060Z,1.70
2018-07-08T17:28:27.602Z,1.57
2018-07-08T17:30:56.066Z,1.93
2018-07-08T17:33:24.519Z,1.97
2018-07-08T17:35:53.011Z,1.97
2018-07-08T17:38:21.469Z,1.90
2018-07-08T17:40:49.897Z,1.80
2018-07-08T17:43:18.394Z,1.90
2018-07-08T17:45:47.076Z,1.87
2018-07-08T17:48:15.610Z,2.00
2018-07-08T17:50:44.054Z,1.73
2018-07-08T17:53:12.471Z,1.93
2018-07-08T17:55:41.760Z,1.70
2018-07-08T17:58:10.181Z,1.87
2018-07-08T18:00:38.644Z,1.67
2018-07-08T18:03:07.122Z,2.00
2018-07-08T18:05:35.504Z,1.60
2018-07-08T18:08:03.961Z,1.90
2018-07-08T18:10:32.535Z,2.10
2018-07-08T18:13:00.955Z,1.73
2018-07-08T18:15:29.435Z,2.10
2018-07-08T18:17:58.042Z,1.90
2018-07-08T18:20:26.461Z,2.10
2018-07-08T18:22:54.886Z,2.07
2018-07-08T18:25:23.296Z,1.60
2018-07-08T18:27:52.142Z,1.67
2018-07-08T18:30:20.711Z,1.70
2018-07-08T18:32:49.249Z,1.70
2018-07-08T18:35:17.780Z,1.73
2018-07-08T18:37:46.223Z,1.80
2018-07-08T18:40:15.149Z,1.73
2018-07-08T18:42:43.726Z,1.70
2018-07-08T18:45:12.104Z,1.80
2018-07-08T18:47:40.706Z,2.03
2018-07-08T18:50:09.830Z,2.20
2018-07-08T18:52:38.323Z,1.80
2018-07-08T18:55:06.918Z,1.83
2018-07-08T18:57:35.454Z,2.13
2018-07-08T19:00:03.950Z,1.90
2018-07-08T19:02:32.345Z,2.00
2018-07-08T19:05:00.794Z,2.20
2018-07-08T19:07:29.305Z,2.60
2018-07-08T19:09:57.785Z,1.90
2018-07-08T19:12:26.312Z,2.20
2018-07-08T19:14:54.726Z,2.00
2018-07-08T19:17:23.188Z,2.20
2018-07-08T19:19:53.386Z,2.20
2018-07-08T19:22:22.393Z,2.20
2018-07-08T19:24:50.505Z,2.43
2018-07-08T19:27:18.873Z,2.40
2018-07-08T19:29:47.408Z,2.50
2018-07-08T19:32:15.845Z,2.10
2018-07-08T19:34:44.281Z,2.53
2018-07-08T19:37:12.436Z,2.50
2018-07-08T19:39:40.906Z,2.30
2018-07-08T19:42:09.370Z,2.40
2018-07-08T19:44:37.762Z,2.70
2018-07-08T19:47:06.208Z,2.27
2018-07-08T19:49:34.547Z,2.60
2018-07-08T19:52:03.007Z,2.57
2018-07-08T19:54:31.589Z,2.50
2018-07-08T19:57:00.370Z,2.50
2018-07-08T19:59:28.804Z,2.30
2018-07-08T20:01:57.258Z,2.60
2018-07-08T20:04:25.778Z,2.60
2018-07-08T20:06:55.113Z,2.63
2018-07-08T20:09:24.275Z,2.30
2018-07-08T20:11:53.067Z,2.57
2018-07-08T20:14:21.165Z,2.40
2018-07-08T20:16:49.625Z,2.50
2018-07-08T20:19:18.077Z,2.63
2018-07-08T20:21:46.550Z,2.30
2018-07-08T20:24:15.492Z,2.53
2018-07-08T20:26:43.949Z,1.93
2018-07-08T20:29:12.381Z,2.50
2018-07-08T20:31:41.594Z,2.20
2018-07-08T20:34:10.090Z,2.53
2018-07-08T20:36:38.581Z,2.43
2018-07-08T20:39:07.814Z,2.73
2018-07-08T20:41:36.361Z,3.07
2018-07-08T20:44:04.765Z,2.30
2018-07-08T20:46:32.900Z,2.60
2018-07-08T20:49:01.471Z,2.67
2018-07-08T20:51:29.977Z,2.47
2018-07-08T20:53:59.193Z,2.60
2018-07-08T20:56:27.634Z,2.50
2018-07-08T20:58:57.070Z,2.50
2018-07-08T21:01:25.894Z,2.50
2018-07-08T21:03:54.025Z,2.57
2018-07-08T21:06:22.513Z,2.47
2018-07-08T21:08:50.933Z,2.80
2018-07-08T21:11:19.339Z,2.60
2018-07-08T21:13:47.852Z,2.47
2018-07-08T21:16:16.238Z,2.40
2018-07-08T21:18:44.667Z,2.80
2018-07-08T21:21:13.067Z,2.90
2018-07-08T21:23:41.477Z,2.43
2018-07-08T21:26:10.078Z,2.83
2018-07-08T21:28:39.371Z,2.80
2018-07-08T21:31:10.939Z,2.60
2018-07-08T21:33:39.666Z,2.60
2018-07-08T21:36:08.518Z,2.87
2018-07-08T21:38:36.975Z,2.20
2018-07-08T21:41:05.706Z,2.57
2018-07-08T21:43:34.105Z,2.60
2018-07-08T21:46:02.785Z,2.90
2018-07-08T21:48:31.178Z,2.70
2018-07-08T21:50:59.636Z,3.07
2018-07-08T21:53:28.054Z,2.50
2018-07-08T21:55:56.457Z,2.73
2018-07-08T21:58:25.027Z,2.90
2018-07-08T22:01:30.551Z,2.30
2018-07-08T22:03:58.973Z,3.20
2018-07-08T22:06:27.390Z,3.10
2018-07-08T22:08:55.789Z,2.70
2018-07-08T22:11:24.182Z,2.93
2018-07-08T22:13:52.627Z,2.80
2018-07-08T22:16:21.065Z,3.47
2018-07-08T22:18:49.519Z,2.90
2018-07-08T22:21:17.883Z,2.97
2018-07-08T22:23:46.297Z,2.83
2018-07-08T22:26:14.726Z,2.77
2018-07-08T22:28:43.166Z,3.17
2018-07-08T22:31:11.605Z,3.20
2018-07-08T22:33:40.060Z,2.83
2018-07-08T22:36:08.474Z,3.13
2018-07-08T22:38:37.512Z,3.00
2018-07-08T22:41:05.973Z,3.23
2018-07-08T22:43:34.351Z,3.37
2018-07-08T22:46:02.785Z,3.30
2018-07-08T22:48:31.308Z,3.10
2018-07-08T22:50:59.715Z,3.23
2018-07-08T22:53:28.166Z,3.10
2018-07-08T22:55:56.429Z,3.40
2018-07-08T22:58:24.853Z,3.07
2018-07-08T23:01:04.402Z,3.40
2018-07-08T23:04:04.530Z,3.40
2018-07-08T23:06:33.273Z,3.43
2018-07-08T23:09:01.760Z,3.33
2018-07-08T23:11:30.564Z,3.10
2018-07-08T23:13:59.481Z,3.30
2018-07-08T23:16:28.426Z,3.23
2018-07-08T23:18:57.554Z,3.40
2018-07-08T23:21:25.985Z,3.40
2018-07-08T23:23:54.435Z,3.40
2018-07-08T23:26:22.857Z,3.30
2018-07-08T23:28:51.738Z,3.37
2018-07-08T23:31:20.168Z,3.50
2018-07-08T23:33:48.569Z,3.30
2018-07-08T23:36:16.941Z,3.50
2018-07-08T23:38:45.321Z,3.50
2018-07-08T23:41:14.349Z,3.80
2018-07-08T23:43:42.725Z,3.40
2018-07-08T23:46:11.169Z,3.70
2018-07-08T23:48:39.444Z,3.63
2018-07-08T23:51:07.880Z,3.73
2018-07-08T23:53:36.283Z,3.60
2018-07-08T23:56:04.634Z,3.70
2018-07-08T23:58:33.106Z,3.80
